Terminal Aerodrome Forecast
Issued by NWS

Home | Current Version | Previous Version | Text Only | Print | Product List | Glossary On
Versions: 1 2 3 4 5 6 7 8 9 10 11 12 13 14 15
000
FTAK31 PANC 010132 AAA
TAFADQ
TAF AMD
PADQ 010132Z 0102/0124 08007KT P6SM SCT025 BKN050
     FM010900 11013KT P6SM VCSH BKN025 OVC040
     FM011500 10015G23KT 5SM -RA BR OVC015
     FM011800 10020G35KT 2SM RA BKN006 OVC015=

USA.gov is the U.S. government's official web portal to all federal, state and local government web resources and services.